sensor_id;sensor_type;location;lat;lon;timestamp;pressure;altitude;pressure_sealevel;temperature;humidity
7662;BME280;30314;48.184;11.510;2024-03-23T00:54:02;95313.56;;;8.26;100.00
7662;BME280;30314;48.184;11.510;2024-03-23T00:56:29;95335.41;;;8.45;100.00
7662;BME280;30314;48.184;11.510;2024-03-23T00:58:54;95336.16;;;8.46;100.00
7662;BME280;30314;48.184;11.510;2024-03-23T01:01:20;95343.66;;;8.58;100.00
7662;BME280;30314;48.184;11.510;2024-03-23T01:03:46;95340.22;;;8.57;100.00
7662;BME280;30314;48.184;11.510;2024-03-23T01:06:12;95346.50;;;8.62;100.00
7662;BME280;30314;48.184;11.510;2024-03-23T01:08:37;95304.94;;;8.39;100.00
7662;BME280;30314;48.184;11.510;2024-03-23T01:11:03;95328.84;;;8.62;100.00
7662;BME280;30314;48.184;11.510;2024-03-23T01:13:29;95324.16;;;8.59;100.00
7662;BME280;30314;48.184;11.510;2024-03-23T01:15:56;95300.75;;;8.57;100.00
7662;BME280;30314;48.184;11.510;2024-03-23T01:18:23;95309.78;;;8.70;100.00
7662;BME280;30314;48.184;11.510;2024-03-23T01:20:49;95309.66;;;8.62;100.00
7662;BME280;30314;48.184;11.510;2024-03-23T01:23:15;95305.75;;;8.59;100.00
7662;BME280;30314;48.184;11.510;2024-03-23T01:25:40;95309.56;;;8.67;100.00
7662;BME280;30314;48.184;11.510;2024-03-23T01:28:07;95309.56;;;8.67;100.00
7662;BME280;30314;48.184;11.510;2024-03-23T01:30:36;95296.28;;;8.58;100.00
7662;BME280;30314;48.184;11.510;2024-03-23T01:33:02;95306.94;;;8.67;100.00
7662;BME280;30314;48.184;11.510;2024-03-23T01:35:30;95296.88;;;8.55;100.00
7662;BME280;30314;48.184;11.510;2024-03-23T01:37:56;95295.78;;;8.56;100.00
7662;BME280;30314;48.184;11.510;2024-03-23T01:40:21;95293.16;;;8.56;100.00
7662;BME280;30314;48.184;11.510;2024-03-23T01:43:07;95296.78;;;8.60;100.00
7662;BME280;30314;48.184;11.510;2024-03-23T01:45:34;95291.03;;;8.58;100.00
7662;BME280;30314;48.184;11.510;2024-03-23T01:48:01;95288.38;;;8.58;100.00
7662;BME280;30314;48.184;11.510;2024-03-23T01:50:27;95292.81;;;8.63;100.00
7662;BME280;30314;48.184;11.510;2024-03-23T01:52:53;95271.88;;;8.52;100.00
7662;BME280;30314;48.184;11.510;2024-03-23T01:55:20;95289.38;;;8.62;100.00
7662;BME280;30314;48.184;11.510;2024-03-23T01:57:46;95280.91;;;8.65;100.00
7662;BME280;30314;48.184;11.510;2024-03-23T02:00:12;95290.50;;;8.75;100.00
7662;BME280;30314;48.184;11.510;2024-03-23T02:02:44;95275.44;;;8.62;100.00
7662;BME280;30314;48.184;11.510;2024-03-23T02:05:11;95279.34;;;8.64;100.00
7662;BME280;30314;48.184;11.510;2024-03-23T02:07:38;95274.75;;;8.56;100.00
7662;BME280;30314;48.184;11.510;2024-03-23T02:10:06;95265.66;;;8.48;100.00
7662;BME280;30314;48.184;11.510;2024-03-23T02:12:32;95249.78;;;8.34;100.00
7662;BME280;30314;48.184;11.510;2024-03-23T02:14:57;95247.94;;;8.35;100.00
7662;BME280;30314;48.184;11.510;2024-03-23T02:17:23;95242.75;;;8.29;100.00
7662;BME280;30314;48.184;11.510;2024-03-23T02:19:48;95257.41;;;8.36;100.00
7662;BME280;30314;48.184;11.510;2024-03-23T02:22:14;95257.19;;;8.32;100.00
7662;BME280;30314;48.184;11.510;2024-03-23T02:24:41;95248.22;;;8.33;100.00
7662;BME280;30314;48.184;11.510;2024-03-23T02:27:07;95249.78;;;8.34;100.00
7662;BME280;30314;48.184;11.510;2024-03-23T02:29:33;95230.97;;;8.27;100.00
7662;BME280;30314;48.184;11.510;2024-03-23T02:31:58;95228.81;;;8.29;100.00
7662;BME280;30314;48.184;11.510;2024-03-23T02:34:24;95230.06;;;8.31;100.00
7662;BME280;30314;48.184;11.510;2024-03-23T02:36:50;95236.75;;;8.43;100.00
7662;BME280;30314;48.184;11.510;2024-03-23T02:39:15;95235.81;;;8.53;100.00
7662;BME280;30314;48.184;11.510;2024-03-23T02:41:41;95219.03;;;8.49;100.00
7662;BME280;30314;48.184;11.510;2024-03-23T02:44:07;95206.56;;;8.40;100.00
7662;BME280;30314;48.184;11.510;2024-03-23T02:46:33;95209.31;;;8.49;100.00
7662;BME280;30314;48.184;11.510;2024-03-23T02:48:58;95219.38;;;8.61;100.00
7662;BME280;30314;48.184;11.510;2024-03-23T02:51:24;95207.44;;;8.50;100.00
7662;BME280;30314;48.184;11.510;2024-03-23T02:53:50;95205.88;;;8.49;100.00
7662;BME280;30314;48.184;11.510;2024-03-23T02:56:15;95204.81;;;8.50;100.00
7662;BME280;30314;48.184;11.510;2024-03-23T02:58:45;95208.59;;;8.43;100.00
7662;BME280;30314;48.184;11.510;2024-03-23T03:01:10;95221.97;;;8.47;100.00
7662;BME280;30314;48.184;11.510;2024-03-23T03:03:36;95207.59;;;8.39;100.00
7662;BME280;30314;48.184;11.510;2024-03-23T03:06:01;95208.06;;;8.27;100.00
7662;BME280;30314;48.184;11.510;2024-03-23T03:08:27;95209.13;;;8.26;100.00
7662;BME280;30314;48.184;11.510;2024-03-23T03:10:53;95202.44;;;8.34;100.00
7662;BME280;30314;48.184;11.510;2024-03-23T03:13:18;95201.28;;;8.40;100.00
7662;BME280;30314;48.184;11.510;2024-03-23T03:15:44;95197.50;;;8.46;100.00
7662;BME280;30314;48.184;11.510;2024-03-23T03:18:09;95184.13;;;8.43;100.00
7662;BME280;30314;48.184;11.510;2024-03-23T03:20:39;95163.94;;;8.38;100.00
7662;BME280;30314;48.184;11.510;2024-03-23T03:23:05;95183.97;;;8.53;100.00
7662;BME280;30314;48.184;11.510;2024-03-23T03:25:31;95193.00;;;8.66;100.00
7662;BME280;30314;48.184;11.510;2024-03-23T03:27:57;95193.00;;;8.80;100.00
7662;BME280;30314;48.184;11.510;2024-03-23T03:30:22;95191.44;;;8.79;100.00
7662;BME280;30314;48.184;11.510;2024-03-23T03:32:49;95186.75;;;8.90;100.00
7662;BME280;30314;48.184;11.510;2024-03-23T03:35:15;95187.25;;;8.92;100.00
7662;BME280;30314;48.184;11.510;2024-03-23T03:37:41;95176.06;;;8.86;100.00
7662;BME280;30314;48.184;11.510;2024-03-23T03:40:07;95177.78;;;8.91;100.00
7662;BME280;30314;48.184;11.510;2024-03-23T03:42:34;95163.38;;;8.88;100.00
7662;BME280;30314;48.184;11.510;2024-03-23T03:45:00;95170.09;;;8.95;100.00
7662;BME280;30314;48.184;11.510;2024-03-23T03:47:26;95164.94;;;9.03;100.00
7662;BME280;30314;48.184;11.510;2024-03-23T03:49:51;95127.88;;;8.86;100.00
7662;BME280;30314;48.184;11.510;2024-03-23T03:52:17;95152.25;;;9.06;100.00
7662;BME280;30314;48.184;11.510;2024-03-23T03:54:42;95150.00;;;9.13;100.00
7662;BME280;30314;48.184;11.510;2024-03-23T03:57:08;95153.59;;;9.17;100.00
7662;BME280;30314;48.184;11.510;2024-03-23T03:59:34;95150.28;;;9.11;100.00
7662;BME280;30314;48.184;11.510;2024-03-23T04:02:00;95137.22;;;9.06;100.00
7662;BME280;30314;48.184;11.510;2024-03-23T04:04:25;95115.09;;;8.93;100.00
7662;BME280;30314;48.184;11.510;2024-03-23T04:07:01;95117.72;;;9.07;100.00
7662;BME280;30314;48.184;11.510;2024-03-23T04:09:27;95138.22;;;9.24;100.00
7662;BME280;30314;48.184;11.510;2024-03-23T04:11:53;95122.78;;;9.32;100.00
7662;BME280;30314;48.184;11.510;2024-03-23T04:14:19;95128.84;;;9.46;100.00
7662;BME280;30314;48.184;11.510;2024-03-23T04:16:44;95120.81;;;9.51;99.80
7662;BME280;30314;48.184;11.510;2024-03-23T04:19:10;95105.81;;;9.38;99.76
7662;BME280;30314;48.184;11.510;2024-03-23T04:21:39;95109.47;;;9.51;98.69
7662;BME280;30314;48.184;11.510;2024-03-23T04:24:05;95073.03;;;9.30;99.83
7662;BME280;30314;48.184;11.510;2024-03-23T04:26:41;95109.78;;;9.49;98.96
7662;BME280;30314;48.184;11.510;2024-03-23T04:29:07;95093.91;;;9.40;99.34
7662;BME280;30314;48.184;11.510;2024-03-23T04:31:32;95068.25;;;9.32;98.89
7662;BME280;30314;48.184;11.510;2024-03-23T04:34:03;95093.09;;;9.54;99.23
7662;BME280;30314;48.184;11.510;2024-03-23T04:36:29;95080.59;;;9.46;98.35
7662;BME280;30314;48.184;11.510;2024-03-23T04:38:55;95082.34;;;9.50;98.06
7662;BME280;30314;48.184;11.510;2024-03-23T04:41:20;95062.84;;;9.51;98.30
7662;BME280;30314;48.184;11.510;2024-03-23T04:43:46;95068.69;;;9.48;98.30
7662;BME280;30314;48.184;11.510;2024-03-23T04:46:13;95039.88;;;9.29;98.54
7662;BME280;30314;48.184;11.510;2024-03-23T04:48:38;95080.19;;;9.52;99.64
7662;BME280;30314;48.184;11.510;2024-03-23T04:51:04;95061.97;;;9.42;99.41
7662;BME280;30314;48.184;11.510;2024-03-23T04:53:29;95035.97;;;9.26;98.22
7662;BME280;30314;48.184;11.510;2024-03-23T04:55:56;95069.66;;;9.52;98.22
7662;BME280;30314;48.184;11.510;2024-03-23T04:58:25;95059.41;;;9.51;98.74
7662;BME280;30314;48.184;11.510;2024-03-23T05:00:54;95040.88;;;9.42;98.14
7662;BME280;30314;48.184;11.510;2024-03-23T05:03:20;95044.97;;;9.48;97.69
7662;BME280;30314;48.184;11.510;2024-03-23T05:05:47;95029.75;;;9.45;97.10
7662;BME280;30314;48.184;11.510;2024-03-23T05:08:14;95056.72;;;9.65;96.16
7662;BME280;30314;48.184;11.510;2024-03-23T05:10:44;95046.59;;;9.58;96.88
7662;BME280;30314;48.184;11.510;2024-03-23T05:13:11;95043.53;;;9.42;99.23
7662;BME280;30314;48.184;11.510;2024-03-23T05:15:37;95039.94;;;9.38;99.29
7662;BME280;30314;48.184;11.510;2024-03-23T05:18:04;95037.78;;;9.26;100.00
7662;BME280;30314;48.184;11.510;2024-03-23T05:20:31;95031.19;;;9.14;100.00
7662;BME280;30314;48.184;11.510;2024-03-23T05:22:56;95017.75;;;9.02;100.00
7662;BME280;30314;48.184;11.510;2024-03-23T05:25:22;95029.25;;;9.06;100.00
7662;BME280;30314;48.184;11.510;2024-03-23T05:27:48;95023.91;;;8.97;100.00
7662;BME280;30314;48.184;11.510;2024-03-23T05:30:14;95025.94;;;9.00;100.00
7662;BME280;30314;48.184;11.510;2024-03-23T05:32:39;95015.03;;;8.93;100.00
7662;BME280;30314;48.184;11.510;2024-03-23T05:35:09;95017.16;;;8.91;100.00
7662;BME280;30314;48.184;11.510;2024-03-23T05:37:35;94994.19;;;8.83;100.00
7662;BME280;30314;48.184;11.510;2024-03-23T05:40:01;94993.28;;;8.87;100.00
7662;BME280;30314;48.184;11.510;2024-03-23T05:42:26;95009.59;;;9.12;100.00
7662;BME280;30314;48.184;11.510;2024-03-23T05:44:52;94999.25;;;9.16;100.00
7662;BME280;30314;48.184;11.510;2024-03-23T05:47:17;95011.16;;;9.27;100.00
7662;BME280;30314;48.184;11.510;2024-03-23T05:49:43;95010.75;;;9.34;100.00
7662;BME280;30314;48.184;11.510;2024-03-23T05:52:09;95006.09;;;9.31;100.00
7662;BME280;30314;48.184;11.510;2024-03-23T05:54:38;94980.88;;;9.39;97.21
7662;BME280;30314;48.184;11.510;2024-03-23T05:57:04;95000.53;;;9.55;98.31
7662;BME280;30314;48.184;11.510;2024-03-23T05:59:29;94999.91;;;9.58;98.94
7662;BME280;30314;48.184;11.510;2024-03-23T06:01:55;94997.13;;;9.55;98.19
7662;BME280;30314;48.184;11.510;2024-03-23T06:04:21;94985.31;;;9.52;98.86
7662;BME280;30314;48.184;11.510;2024-03-23T06:06:48;94984.09;;;9.58;100.00
7662;BME280;30314;48.184;11.510;2024-03-23T06:09:13;94965.53;;;9.64;96.04
7662;BME280;30314;48.184;11.510;2024-03-23T06:11:39;94985.97;;;9.81;97.50
7662;BME280;30314;48.184;11.510;2024-03-23T06:14:05;94962.34;;;9.76;98.36
7662;BME280;30314;48.184;11.510;2024-03-23T06:16:31;94967.13;;;9.96;96.17
7662;BME280;30314;48.184;11.510;2024-03-23T06:18:57;94953.59;;;9.98;95.59
7662;BME280;30314;48.184;11.510;2024-03-23T06:21:23;94947.78;;;10.10;95.93
7662;BME280;30314;48.184;11.510;2024-03-23T06:23:52;94966.03;;;10.38;92.72
7662;BME280;30314;48.184;11.510;2024-03-23T06:26:19;94948.19;;;10.35;92.88
7662;BME280;30314;48.184;11.510;2024-03-23T06:28:45;94948.22;;;10.52;90.34
7662;BME280;30314;48.184;11.510;2024-03-23T06:31:11;94940.94;;;10.58;90.83
7662;BME280;30314;48.184;11.510;2024-03-23T06:33:37;94931.78;;;10.64;88.87
7662;BME280;30314;48.184;11.510;2024-03-23T06:36:04;94932.44;;;10.79;88.50
7662;BME280;30314;48.184;11.510;2024-03-23T06:38:30;94927.63;;;10.90;87.25
7662;BME280;30314;48.184;11.510;2024-03-23T06:40:55;94913.78;;;11.02;85.67
7662;BME280;30314;48.184;11.510;2024-03-23T06:43:21;94909.78;;;11.13;83.97
7662;BME280;30314;48.184;11.510;2024-03-23T06:45:53;94888.94;;;11.20;80.39
7662;BME280;30314;48.184;11.510;2024-03-23T06:48:19;94899.16;;;11.48;79.87
7662;BME280;30314;48.184;11.510;2024-03-23T06:50:45;94892.59;;;11.54;79.28
7662;BME280;30314;48.184;11.510;2024-03-23T06:53:14;94899.09;;;11.66;80.23
7662;BME280;30314;48.184;11.510;2024-03-23T06:55:40;94895.06;;;11.68;84.45
7662;BME280;30314;48.184;11.510;2024-03-23T06:58:06;94895.38;;;11.67;83.63
7662;BME280;30314;48.184;11.510;2024-03-23T07:00:32;94895.50;;;11.79;84.97
7662;BME280;30314;48.184;11.510;2024-03-23T07:02:58;94889.97;;;12.02;81.24
7662;BME280;30314;48.184;11.510;2024-03-23T07:05:24;94889.13;;;12.10;86.21
7662;BME280;30314;48.184;11.510;2024-03-23T07:07:50;94893.13;;;12.25;80.69
7662;BME280;30314;48.184;11.510;2024-03-23T07:10:15;94886.81;;;12.39;79.94
7662;BME280;30314;48.184;11.510;2024-03-23T07:12:41;94898.44;;;12.77;79.29
7662;BME280;30314;48.184;11.510;2024-03-23T07:15:07;94895.00;;;12.97;80.31
7662;BME280;30314;48.184;11.510;2024-03-23T07:17:34;94902.00;;;13.02;80.44
7662;BME280;30314;48.184;11.510;2024-03-23T07:20:03;94883.59;;;12.85;77.55
7662;BME280;30314;48.184;11.510;2024-03-23T07:22:30;94903.63;;;12.94;82.21
7662;BME280;30314;48.184;11.510;2024-03-23T07:24:56;94859.75;;;12.85;76.92
7662;BME280;30314;48.184;11.510;2024-03-23T07:27:21;94905.63;;;12.97;82.10
7662;BME280;30314;48.184;11.510;2024-03-23T07:29:49;94917.56;;;12.82;85.75
7662;BME280;30314;48.184;11.510;2024-03-23T07:32:14;94916.53;;;12.75;85.43
7662;BME280;30314;48.184;11.510;2024-03-23T07:34:40;94937.28;;;12.73;83.49
7662;BME280;30314;48.184;11.510;2024-03-23T07:37:06;94951.56;;;12.80;85.87
7662;BME280;30314;48.184;11.510;2024-03-23T07:39:31;94983.09;;;12.73;93.24
7662;BME280;30314;48.184;11.510;2024-03-23T07:41:59;94978.13;;;12.33;100.00
7662;BME280;30314;48.184;11.510;2024-03-23T07:44:24;95002.66;;;12.03;100.00
7662;BME280;30314;48.184;11.510;2024-03-23T07:46:50;95022.31;;;11.67;100.00
7662;BME280;30314;48.184;11.510;2024-03-23T07:49:16;94994.31;;;11.31;100.00
7662;BME280;30314;48.184;11.510;2024-03-23T07:51:41;95016.56;;;11.21;100.00
7662;BME280;30314;48.184;11.510;2024-03-23T07:54:07;95000.03;;;10.89;100.00
7662;BME280;30314;48.184;11.510;2024-03-23T07:56:32;95016.31;;;10.82;100.00
7662;BME280;30314;48.184;11.510;2024-03-23T07:58:58;95010.50;;;10.53;100.00
7662;BME280;30314;48.184;11.510;2024-03-23T08:01:23;95034.72;;;10.55;100.00
7662;BME280;30314;48.184;11.510;2024-03-23T08:03:49;95047.44;;;10.53;100.00
7662;BME280;30314;48.184;11.510;2024-03-23T08:06:16;95055.84;;;10.55;100.00
7662;BME280;30314;48.184;11.510;2024-03-23T08:08:44;95049.47;;;10.25;100.00
7662;BME280;30314;48.184;11.510;2024-03-23T08:11:10;95065.88;;;10.13;100.00
7662;BME280;30314;48.184;11.510;2024-03-23T08:13:38;95067.19;;;10.24;100.00
7662;BME280;30314;48.184;11.510;2024-03-23T08:16:04;95075.06;;;10.15;100.00
7662;BME280;30314;48.184;11.510;2024-03-23T08:18:30;95091.50;;;10.12;100.00
7662;BME280;30314;48.184;11.510;2024-03-23T08:21:03;95111.63;;;10.08;100.00
7662;BME280;30314;48.184;11.510;2024-03-23T08:23:30;95158.44;;;9.80;100.00
7662;BME280;30314;48.184;11.510;2024-03-23T08:26:03;95174.97;;;9.57;100.00
7662;BME280;30314;48.184;11.510;2024-03-23T08:28:29;95170.22;;;9.32;100.00
7662;BME280;30314;48.184;11.510;2024-03-23T08:30:55;95160.81;;;9.11;100.00
7662;BME280;30314;48.184;11.510;2024-03-23T08:33:22;95179.38;;;9.06;100.00
7662;BME280;30314;48.184;11.510;2024-03-23T08:35:58;95170.69;;;9.06;100.00
7662;BME280;30314;48.184;11.510;2024-03-23T08:38:25;95163.34;;;8.74;100.00
7662;BME280;30314;48.184;11.510;2024-03-23T08:41:04;95173.38;;;8.72;100.00
7662;BME280;30314;48.184;11.510;2024-03-23T08:43:31;95175.44;;;8.62;100.00
7662;BME280;30314;48.184;11.510;2024-03-23T08:46:08;95184.38;;;8.60;100.00
7662;BME280;30314;48.184;11.510;2024-03-23T08:48:35;95182.03;;;8.59;100.00
7662;BME280;30314;48.184;11.510;2024-03-23T08:53:30;95187.47;;;8.49;100.00
7662;BME280;30314;48.184;11.510;2024-03-23T08:55:57;95195.94;;;8.45;100.00
7662;BME280;30314;48.184;11.510;2024-03-23T08:58:26;95202.84;;;8.41;100.00
7662;BME280;30314;48.184;11.510;2024-03-23T09:00:56;95206.28;;;8.23;100.00
7662;BME280;30314;48.184;11.510;2024-03-23T09:03:25;95208.69;;;8.19;100.00
7662;BME280;30314;48.184;11.510;2024-03-23T09:05:52;95226.81;;;8.21;100.00
7662;BME280;30314;48.184;11.510;2024-03-23T09:08:18;95172.25;;;7.74;100.00
7662;BME280;30314;48.184;11.510;2024-03-23T09:10:44;95218.44;;;7.99;100.00
7662;BME280;30314;48.184;11.510;2024-03-23T09:13:10;95237.44;;;8.15;100.00
7662;BME280;30314;48.184;11.510;2024-03-23T09:15:46;95234.34;;;8.27;100.00
7662;BME280;30314;48.184;11.510;2024-03-23T09:18:12;95210.13;;;8.11;100.00
7662;BME280;30314;48.184;11.510;2024-03-23T09:20:37;95214.25;;;8.17;100.00
7662;BME280;30314;48.184;11.510;2024-03-23T09:23:03;95215.72;;;8.04;100.00
7662;BME280;30314;48.184;11.510;2024-03-23T09:25:29;95208.16;;;8.03;100.00
7662;BME280;30314;48.184;11.510;2024-03-23T09:27:54;95215.19;;;8.08;100.00
7662;BME280;30314;48.184;11.510;2024-03-23T09:30:20;95161.09;;;7.63;100.00
7662;BME280;30314;48.184;11.510;2024-03-23T09:32:46;95169.81;;;7.58;100.00
7662;BME280;30314;48.184;11.510;2024-03-23T09:35:12;95253.25;;;8.10;100.00
7662;BME280;30314;48.184;11.510;2024-03-23T09:37:40;95227.88;;;7.81;100.00
7662;BME280;30314;48.184;11.510;2024-03-23T09:40:10;95229.19;;;8.03;100.00
7662;BME280;30314;48.184;11.510;2024-03-23T09:42:37;95250.78;;;8.00;100.00
7662;BME280;30314;48.184;11.510;2024-03-23T09:45:10;95248.84;;;8.06;100.00
7662;BME280;30314;48.184;11.510;2024-03-23T09:47:36;95224.97;;;7.64;100.00
7662;BME280;30314;48.184;11.510;2024-03-23T09:50:03;95273.28;;;7.87;100.00
7662;BME280;30314;48.184;11.510;2024-03-23T09:52:30;95261.84;;;7.78;100.00
7662;BME280;30314;48.184;11.510;2024-03-23T09:54:56;95277.22;;;7.89;100.00
7662;BME280;30314;48.184;11.510;2024-03-23T09:57:21;95263.91;;;7.56;100.00
7662;BME280;30314;48.184;11.510;2024-03-23T09:59:47;95274.19;;;7.53;100.00
7662;BME280;30314;48.184;11.510;2024-03-23T10:02:13;95291.44;;;7.64;100.00
7662;BME280;30314;48.184;11.510;2024-03-23T10:04:42;95287.56;;;7.56;100.00
7662;BME280;30314;48.184;11.510;2024-03-23T10:07:12;95295.91;;;7.64;100.00
7662;BME280;30314;48.184;11.510;2024-03-23T10:09:39;95304.78;;;7.68;100.00
7662;BME280;30314;48.184;11.510;2024-03-23T10:12:12;95286.63;;;7.47;100.00
7662;BME280;30314;48.184;11.510;2024-03-23T10:14:42;95300.88;;;7.41;100.00
7662;BME280;30314;48.184;11.510;2024-03-23T10:17:15;95300.88;;;7.41;100.00
7662;BME280;30314;48.184;11.510;2024-03-23T10:19:49;95272.63;;;7.03;100.00
7662;BME280;30314;48.184;11.510;2024-03-23T10:22:20;95298.75;;;7.13;100.00
7662;BME280;30314;48.184;11.510;2024-03-23T10:24:46;95310.66;;;7.05;100.00
7662;BME280;30314;48.184;11.510;2024-03-23T10:27:16;95314.38;;;6.99;100.00
7662;BME280;30314;48.184;11.510;2024-03-23T10:29:46;95280.50;;;7.03;100.00
7662;BME280;30314;48.184;11.510;2024-03-23T10:32:13;95294.16;;;7.00;100.00
7662;BME280;30314;48.184;11.510;2024-03-23T10:34:39;95289.28;;;7.17;100.00
7662;BME280;30314;48.184;11.510;2024-03-23T10:37:06;95301.91;;;7.15;100.00
7662;BME280;30314;48.184;11.510;2024-03-23T10:39:39;95306.72;;;7.32;100.00
7662;BME280;30314;48.184;11.510;2024-03-23T10:42:09;95304.66;;;7.29;100.00
7662;BME280;30314;48.184;11.510;2024-03-23T10:44:38;95296.28;;;7.27;100.00
7662;BME280;30314;48.184;11.510;2024-03-23T10:47:05;95303.84;;;7.34;100.00
7662;BME280;30314;48.184;11.510;2024-03-23T10:49:32;95270.41;;;6.86;100.00
7662;BME280;30314;48.184;11.510;2024-03-23T10:54:27;95325.91;;;7.03;100.00
7662;BME280;30314;48.184;11.510;2024-03-23T10:56:59;95348.88;;;7.17;100.00
7662;BME280;30314;48.184;11.510;2024-03-23T10:59:27;95334.38;;;6.95;100.00
7662;BME280;30314;48.184;11.510;2024-03-23T11:01:57;95360.94;;;7.23;100.00
7662;BME280;30314;48.184;11.510;2024-03-23T11:06:56;95368.16;;;7.07;100.00
7662;BME280;30314;48.184;11.510;2024-03-23T11:14:47;95374.72;;;7.04;100.00
7662;BME280;30314;48.184;11.510;2024-03-23T11:17:18;95379.81;;;6.90;100.00
7662;BME280;30314;48.184;11.510;2024-03-23T11:19:44;95381.63;;;6.95;100.00
7662;BME280;30314;48.184;11.510;2024-03-23T11:22:10;95359.09;;;6.89;100.00
7662;BME280;30314;48.184;11.510;2024-03-23T11:24:35;95389.84;;;7.18;100.00
7662;BME280;30314;48.184;11.510;2024-03-23T11:27:15;95365.94;;;7.19;100.00
7662;BME280;30314;48.184;11.510;2024-03-23T11:29:41;95362.50;;;7.24;100.00
7662;BME280;30314;48.184;11.510;2024-03-23T11:32:09;95349.69;;;7.17;100.00
7662;BME280;30314;48.184;11.510;2024-03-23T11:34:35;95391.66;;;7.23;100.00
7662;BME280;30314;48.184;11.510;2024-03-23T11:37:05;95386.09;;;7.29;100.00
7662;BME280;30314;48.184;11.510;2024-03-23T11:39:31;95372.03;;;7.15;100.00
7662;BME280;30314;48.184;11.510;2024-03-23T11:41:57;95362.91;;;7.07;100.00
7662;BME280;30314;48.184;11.510;2024-03-23T11:44:25;95385.00;;;7.36;100.00
7662;BME280;30314;48.184;11.510;2024-03-23T11:46:51;95392.31;;;7.39;100.00
7662;BME280;30314;48.184;11.510;2024-03-23T11:49:28;95379.28;;;7.28;100.00
7662;BME280;30314;48.184;11.510;2024-03-23T11:51:56;95359.81;;;7.29;100.00
7662;BME280;30314;48.184;11.510;2024-03-23T11:54:23;95379.75;;;7.36;100.00
7662;BME280;30314;48.184;11.510;2024-03-23T11:57:08;95365.41;;;7.52;100.00
7662;BME280;30314;48.184;11.510;2024-03-23T11:59:35;95351.34;;;7.38;100.00
7662;BME280;30314;48.184;11.510;2024-03-23T12:02:09;95372.28;;;7.48;100.00
7662;BME280;30314;48.184;11.510;2024-03-23T12:04:36;95384.75;;;7.32;100.00
7662;BME280;30314;48.184;11.510;2024-03-23T12:07:12;95349.06;;;7.26;100.00
7662;BME280;30314;48.184;11.510;2024-03-23T12:09:39;95364.84;;;7.26;100.00
7662;BME280;30314;48.184;11.510;2024-03-23T12:12:14;95395.22;;;7.37;100.00
7662;BME280;30314;48.184;11.510;2024-03-23T12:14:42;95353.63;;;7.15;100.00
7662;BME280;30314;48.184;11.510;2024-03-23T12:17:12;95382.38;;;7.36;100.00
7662;BME280;30314;48.184;11.510;2024-03-23T12:19:38;95372.53;;;7.46;100.00
7662;BME280;30314;48.184;11.510;2024-03-23T12:22:05;95367.03;;;7.48;100.00
7662;BME280;30314;48.184;11.510;2024-03-23T12:24:31;95376.88;;;7.61;100.00
7662;BME280;30314;48.184;11.510;2024-03-23T12:27:03;95373.56;;;7.51;100.00
7662;BME280;30314;48.184;11.510;2024-03-23T12:29:34;95377.75;;;7.52;100.00
7662;BME280;30314;48.184;11.510;2024-03-23T12:32:03;95384.72;;;7.67;100.00
7662;BME280;30314;48.184;11.510;2024-03-23T12:34:29;95364.56;;;7.57;100.00
7662;BME280;30314;48.184;11.510;2024-03-23T12:36:56;95368.59;;;7.49;100.00
7662;BME280;30314;48.184;11.510;2024-03-23T12:39:22;95342.47;;;7.33;100.00
7662;BME280;30314;48.184;11.510;2024-03-23T12:41:48;95385.00;;;7.36;100.00
7662;BME280;30314;48.184;11.510;2024-03-23T12:44:14;95340.50;;;7.15;100.00
7662;BME280;30314;48.184;11.510;2024-03-23T12:46:44;95361.31;;;7.41;100.00
7662;BME280;30314;48.184;11.510;2024-03-23T12:49:10;95366.06;;;7.39;100.00
7662;BME280;30314;48.184;11.510;2024-03-23T12:51:36;95375.41;;;7.50;100.00
7662;BME280;30314;48.184;11.510;2024-03-23T12:54:02;95360.16;;;7.52;100.00
7662;BME280;30314;48.184;11.510;2024-03-23T12:56:28;95347.34;;;7.45;100.00
7662;BME280;30314;48.184;11.510;2024-03-23T12:58:54;95366.25;;;7.72;100.00
7662;BME280;30314;48.184;11.510;2024-03-23T13:01:25;95357.63;;;7.66;100.00
7662;BME280;30314;48.184;11.510;2024-03-23T13:03:51;95359.00;;;7.64;100.00
7662;BME280;30314;48.184;11.510;2024-03-23T13:06:17;95356.88;;;7.66;100.00
7662;BME280;30314;48.184;11.510;2024-03-23T13:08:46;95364.91;;;7.74;100.00
7662;BME280;30314;48.184;11.510;2024-03-23T13:11:12;95358.38;;;7.72;100.00
7662;BME280;30314;48.184;11.510;2024-03-23T13:13:39;95371.88;;;7.89;100.00
7662;BME280;30314;48.184;11.510;2024-03-23T13:16:17;95358.88;;;7.74;100.00
7662;BME280;30314;48.184;11.510;2024-03-23T13:18:43;95360.63;;;7.84;100.00
7662;BME280;30314;48.184;11.510;2024-03-23T13:21:09;95332.72;;;7.64;100.00
7662;BME280;30314;48.184;11.510;2024-03-23T13:23:35;95326.94;;;7.61;100.00
7662;BME280;30314;48.184;11.510;2024-03-23T13:26:03;95293.72;;;7.46;100.00
7662;BME280;30314;48.184;11.510;2024-03-23T13:28:29;95325.94;;;7.57;100.00
7662;BME280;30314;48.184;11.510;2024-03-23T13:30:55;95326.41;;;7.59;100.00
7662;BME280;30314;48.184;11.510;2024-03-23T13:33:23;95302.94;;;7.44;100.00
7662;BME280;30314;48.184;11.510;2024-03-23T13:35:52;95325.50;;;7.50;100.00
7662;BME280;30314;48.184;11.510;2024-03-23T13:38:19;95319.16;;;7.51;100.00
7662;BME280;30314;48.184;11.510;2024-03-23T13:40:51;95350.94;;;7.55;100.00
7662;BME280;30314;48.184;11.510;2024-03-23T13:43:17;95345.31;;;7.37;100.00
7662;BME280;30314;48.184;11.510;2024-03-23T13:45:42;95348.63;;;7.18;100.00
7662;BME280;30314;48.184;11.510;2024-03-23T13:48:09;95398.34;;;7.10;100.00
7662;BME280;30314;48.184;11.510;2024-03-23T13:50:35;95351.22;;;6.44;100.00
7662;BME280;30314;48.184;11.510;2024-03-23T13:53:01;95408.84;;;6.59;100.00
7662;BME280;30314;48.184;11.510;2024-03-23T13:55:26;95391.00;;;6.01;100.00
7662;BME280;30314;48.184;11.510;2024-03-23T13:57:52;95399.94;;;5.95;100.00
7662;BME280;30314;48.184;11.510;2024-03-23T14:00:18;95382.13;;;5.81;100.00
7662;BME280;30314;48.184;11.510;2024-03-23T14:02:44;95386.88;;;5.69;100.00
7662;BME280;30314;48.184;11.510;2024-03-23T14:05:10;95330.66;;;5.30;100.00